Martinsburg, Nebraska
Current Conditions -  °F | °C
As of 8:52 AM on Saturday 01 Nov 2014 (Local Time) from KSUX Reporting Station
Clear Clear  
Wind Chill: 19°   Ceiling: Unl
Heat Index: 29°   Visibility: 10mi
Dew Point: 20°   Wind: 13mph
Humidity: 69%   Direction: 150°SSE
Pressure: 30.36"   Gusts: NA
Location:  42.5817°N, 96.7269°W
Report Text: KSUX 011352Z 15011KT 10SM CLR M02/M07 A3036 RMK AO2 SLP296 T10171067
Loading
Personal Weather Stations






























Interactive Weather Map
Tropical Storm Tracking
New forecast layout! Learn more

10-Day Weather Forecast

Advertisements
Track Severe Weather on mobile